Time;durP1;ratioP1;P1;durP2;ratioP2;P2;SDS_P1;SDS_P2;PMS_P1;PMS_P2;Temp;Humidity;BMP_temperature;BMP_pressure;BME280_temperature;BME280_humidity;BME280_pressure;Samples;Min_cycle;Max_cycle;Signal;HPM_P1;HPM_P2
2020/12/31 00:01:48;;;;;;;42.45;22.62;;;;;;;8.35;59.63;98872.94;4367874;32;20260;-93
2020/12/31 00:04:13;;;;;;;43.35;23.27;;;;;;;8.41;59.64;98876.16;4368441;32;20173;-93
2020/12/31 00:06:39;;;;;;;39.83;23.02;;;;;;;8.56;59.65;98866.97;4368509;32;20121;-95
2020/12/31 00:09:04;;;;;;;42.20;21.98;;;;;;;8.62;59.65;98874.50;4357463;32;20384;-95
2020/12/31 00:11:30;;;;;;;38.40;21.08;;;;;;;8.73;59.66;98874.09;4357334;32;20149;-95
2020/12/31 00:13:55;;;;;;;38.30;22.60;;;;;;;8.76;59.67;98876.59;4357293;32;20361;-94
2020/12/31 00:16:21;;;;;;;37.88;21.67;;;;;;;8.72;59.66;98873.25;4357825;32;20145;-94
2020/12/31 00:18:46;;;;;;;39.25;23.02;;;;;;;8.80;59.66;98863.44;4360110;32;20108;-94
2020/12/31 00:21:11;;;;;;;36.50;21.17;;;;;;;8.88;59.67;98866.56;4369742;32;20141;-93
2020/12/31 00:23:37;;;;;;;35.45;20.77;;;;;;;8.87;59.67;98864.03;4357020;32;20419;-94
2020/12/31 00:26:02;;;;;;;38.97;21.70;;;;;;;9.00;59.68;98854.03;4369248;32;20460;-95
2020/12/31 00:28:28;;;;;;;37.40;22.08;;;;;;;8.74;59.66;98857.59;4368832;32;23316;-94
2020/12/31 00:30:53;;;;;;;38.90;21.80;;;;;;;8.80;59.66;98862.59;4369012;32;25343;-93
2020/12/31 00:33:19;;;;;;;36.08;21.90;;;;;;;8.82;59.67;98864.22;4356910;32;20119;-94
2020/12/31 00:35:45;;;;;;;40.58;22.02;;;;;;;8.81;59.66;98859.94;4369167;32;20114;-95
2020/12/31 00:38:11;;;;;;;41.35;21.80;;;;;;;8.81;59.66;98854.75;4357088;32;20102;-93
2020/12/31 00:40:36;;;;;;;39.08;21.45;;;;;;;8.71;59.66;98870.72;4356441;32;20492;-94
2020/12/31 00:43:02;;;;;;;36.40;20.90;;;;;;;8.62;59.65;98877.09;4356796;32;20448;-94
2020/12/31 00:45:27;;;;;;;38.00;21.55;;;;;;;8.66;59.66;98891.66;4356518;32;20116;-93
2020/12/31 00:47:53;;;;;;;38.80;22.17;;;;;;;8.85;59.67;98892.62;4356832;32;20086;-94
2020/12/31 00:50:19;;;;;;;38.35;20.77;;;;;;;8.77;59.66;98889.50;4356371;32;20149;-94
2020/12/31 00:52:44;;;;;;;41.00;22.58;;;;;;;8.65;59.66;98895.13;4368583;32;20166;-93
2020/12/31 00:55:09;;;;;;;45.00;23.00;;;;;;;8.57;59.65;98890.25;4356596;32;20138;-93
2020/12/31 00:57:35;;;;;;;43.83;23.23;;;;;;;8.58;59.65;98891.09;4357100;32;20161;-95
2020/12/31 01:00:05;;;;;;;43.15;24.20;;;;;;;8.54;59.65;98907.69;4369558;32;20149;-95
2020/12/31 01:02:30;;;;;;;42.75;22.65;;;;;;;8.46;59.65;98912.28;4357169;32;20111;-95
2020/12/31 01:04:55;;;;;;;42.15;23.02;;;;;;;8.09;59.63;98925.72;4356518;32;20137;-94
2020/12/31 01:07:21;;;;;;;39.72;23.15;;;;;;;8.11;59.63;98931.69;4369224;32;20177;-93
2020/12/31 01:09:46;;;;;;;41.45;22.85;;;;;;;8.16;59.63;98932.34;4368531;32;21471;-93
2020/12/31 01:12:11;;;;;;;41.05;23.75;;;;;;;8.30;59.64;98928.38;4368636;32;20122;-94
2020/12/31 01:14:37;;;;;;;45.17;24.55;;;;;;;8.31;59.64;98937.84;4368578;32;20102;-94
2020/12/31 01:17:02;;;;;;;43.25;23.85;;;;;;;8.09;59.63;98934.34;4356321;32;20104;-94
2020/12/31 01:19:28;;;;;;;49.58;25.12;;;;;;;8.02;59.63;98930.22;4355802;32;27188;-95
2020/12/31 01:21:54;;;;;;;46.65;25.80;;;;;;;8.15;59.64;98933.25;4356817;32;20144;-95
2020/12/31 01:24:19;;;;;;;52.10;27.45;;;;;;;7.88;59.61;98932.47;4380723;32;20654;-94
2020/12/31 01:26:44;;;;;;;48.90;25.62;;;;;;;7.90;59.61;98936.69;4368842;32;20142;-94
2020/12/31 01:29:10;;;;;;;51.20;26.50;;;;;;;7.84;59.62;98936.91;4354869;32;20443;-93
2020/12/31 01:31:35;;;;;;;49.03;26.95;;;;;;;7.72;59.61;98926.09;4355938;32;20467;-93
2020/12/31 01:34:00;;;;;;;47.85;26.33;;;;;;;7.89;59.62;98916.03;4356039;32;24095;-93
2020/12/31 01:36:26;;;;;;;50.70;25.52;;;;;;;7.77;59.61;98922.47;4368140;32;28072;-93
2020/12/31 01:38:51;;;;;;;50.45;26.73;;;;;;;7.63;59.61;98914.31;4368453;32;20124;-93
2020/12/31 01:41:24;;;;;;;52.97;27.90;;;;;;;7.53;59.59;98905.16;4356223;32;20110;-94
2020/12/31 01:44:09;;;;;;;55.10;26.65;;;;;;;7.53;59.59;98905.16;4356427;32;20099;-92
2020/12/31 01:46:36;;;;;;;57.17;28.02;;;;;;;7.58;59.60;98904.13;4369125;32;20490;-94
2020/12/31 01:49:02;;;;;;;50.00;26.00;;;;;;;7.44;59.59;98897.69;4356701;32;20109;-93
2020/12/31 01:51:28;;;;;;;54.63;27.02;;;;;;;7.39;59.58;98895.25;4381493;32;20113;-94
2020/12/31 01:53:56;;;;;;;57.38;27.25;;;;;;;7.28;59.58;98903.34;4356606;32;20086;-92
2020/12/31 01:56:29;;;;;;;51.88;26.67;;;;;;;7.32;59.58;98904.09;4356860;32;20078;-95
2020/12/31 01:58:55;;;;;;;54.75;27.30;;;;;;;7.13;59.58;98910.78;4355830;32;20129;-93
2020/12/31 02:01:21;;;;;;;49.75;26.25;;;;;;;7.29;59.58;98905.06;4380733;32;20102;-92
2020/12/31 02:03:47;;;;;;;53.92;26.98;;;;;;;7.22;59.58;98900.97;4380972;32;20490;-93
2020/12/31 02:06:12;;;;;;;50.67;26.05;;;;;;;7.08;59.57;98901.41;4356540;32;20109;-93
2020/12/31 02:08:38;;;;;;;53.65;26.85;;;;;;;7.02;59.56;98908.50;4355775;32;20106;-94
2020/12/31 02:11:03;;;;;;;52.67;24.60;;;;;;;6.89;59.57;98905.47;4368347;32;20535;-93
2020/12/31 02:13:29;;;;;;;57.30;25.90;;;;;;;6.86;59.56;98903.00;4355810;32;20114;-93
2020/12/31 02:15:54;;;;;;;51.50;24.60;;;;;;;6.81;59.56;98901.41;4356077;32;20527;-93
2020/12/31 02:18:19;;;;;;;51.47;25.12;;;;;;;6.78;59.55;98899.75;4367768;32;24819;-93
2020/12/31 02:20:45;;;;;;;50.22;25.92;;;;;;;6.87;59.56;98909.00;4367500;32;30985;-93
2020/12/31 02:23:10;;;;;;;53.33;26.02;;;;;;;6.89;59.56;98910.66;4368290;32;20142;-94
2020/12/31 02:25:35;;;;;;;51.15;24.67;;;;;;;6.77;59.55;98908.41;4368041;32;20393;-93
2020/12/31 02:28:01;;;;;;;50.38;24.80;;;;;;;6.83;59.56;98910.81;4355946;32;25106;-94
2020/12/31 02:30:26;;;;;;;48.35;24.33;;;;;;;6.84;59.56;98906.47;4356175;32;20149;-94
2020/12/31 02:32:52;;;;;;;59.22;25.62;;;;;;;6.83;59.56;98908.22;4368321;32;20134;-92
2020/12/31 02:35:17;;;;;;;59.03;25.52;;;;;;;6.64;59.56;98907.94;4361261;32;20075;-93
2020/12/31 02:37:42;;;;;;;45.05;23.02;;;;;;;6.78;59.55;98902.34;4371825;32;20398;-94
2020/12/31 02:40:08;;;;;;;53.50;25.58;;;;;;;6.74;59.55;98896.44;4367338;32;24679;-93
2020/12/31 02:42:33;;;;;;;52.75;25.17;;;;;;;6.67;59.55;98899.25;4357199;32;24146;-94
2020/12/31 02:44:58;;;;;;;54.63;24.83;;;;;;;6.84;59.56;98899.56;4357593;32;20118;-94
2020/12/31 02:47:24;;;;;;;57.88;25.98;;;;;;;6.81;59.56;98894.50;4370319;32;20224;-95
2020/12/31 02:49:49;;;;;;;66.00;26.20;;;;;;;6.75;59.55;98889.50;4370435;32;20515;-95
2020/12/31 02:52:15;;;;;;;53.30;25.98;;;;;;;6.62;59.54;98896.78;4357848;32;20181;-94
2020/12/31 02:54:40;;;;;;;50.63;25.40;;;;;;;6.78;59.55;98887.69;4357365;32;26490;-95
2020/12/31 02:57:05;;;;;;;60.08;26.85;;;;;;;6.90;59.56;98890.81;4351789;32;97098;-94
2020/12/31 02:59:31;;;;;;;56.67;26.23;;;;;;;7.00;59.56;98885.28;4370311;32;20156;-94
2020/12/31 03:01:56;;;;;;;56.15;25.33;;;;;;;7.03;59.58;98892.09;4369654;32;29415;-93
2020/12/31 03:04:21;;;;;;;54.80;25.88;;;;;;;7.04;59.57;98888.63;4370374;32;20143;-95
2020/12/31 03:06:47;;;;;;;52.95;24.27;;;;;;;7.11;59.58;98882.38;4369958;32;20114;-94
2020/12/31 03:09:12;;;;;;;54.65;25.23;;;;;;;6.94;59.56;98884.62;4357770;32;20144;-94
2020/12/31 03:11:38;;;;;;;56.30;25.35;;;;;;;6.98;59.57;98887.06;4357860;32;20106;-94
2020/12/31 03:14:03;;;;;;;58.08;25.02;;;;;;;6.95;59.57;98888.91;4357712;32;20161;-94
2020/12/31 03:16:28;;;;;;;61.92;26.27;;;;;;;6.90;59.56;98878.72;4357636;32;20150;-93
2020/12/31 03:18:54;;;;;;;58.78;26.48;;;;;;;7.04;59.57;98886.88;4357317;32;20379;-93
2020/12/31 03:21:19;;;;;;;55.05;24.75;;;;;;;7.18;59.58;98883.00;4369459;32;26787;-93
2020/12/31 03:23:45;;;;;;;57.97;24.87;;;;;;;7.15;59.57;98883.97;4369495;32;23021;-93
2020/12/31 03:26:10;;;;;;;59.97;25.58;;;;;;;6.90;59.56;98888.22;4369555;32;25324;-94
2020/12/31 03:28:36;;;;;;;57.17;24.83;;;;;;;6.85;59.56;98879.72;4358026;32;20604;-94
2020/12/31 03:31:01;;;;;;;53.22;24.80;;;;;;;7.02;59.56;98877.47;4357872;32;20121;-94
2020/12/31 03:33:27;;;;;;;52.95;25.42;;;;;;;7.11;59.58;98872.03;4357747;32;20106;-95
2020/12/31 03:35:52;;;;;;;53.58;24.58;;;;;;;6.99;59.57;98869.81;4357420;32;20110;-94
2020/12/31 03:38:19;;;;;;;53.70;24.92;;;;;;;7.04;59.57;98866.16;4357347;32;20172;-93
2020/12/31 03:40:44;;;;;;;49.92;23.80;;;;;;;6.91;59.56;98867.47;4357619;32;20074;-93
2020/12/31 03:43:10;;;;;;;54.03;24.35;;;;;;;6.77;59.55;98869.62;4369166;32;20519;-92
2020/12/31 03:45:36;;;;;;;56.72;25.60;;;;;;;6.97;59.57;98867.28;4356398;32;20541;-92
2020/12/31 03:48:01;;;;;;;61.65;24.10;;;;;;;6.96;59.57;98863.00;4356779;32;20430;-93
2020/12/31 03:50:27;;;;;;;50.67;23.27;;;;;;;6.97;59.57;98867.28;4356986;32;20106;-92
2020/12/31 03:52:52;;;;;;;53.65;23.95;;;;;;;6.92;59.56;98869.16;4368446;32;20090;-93
2020/12/31 03:55:18;;;;;;;45.83;22.58;;;;;;;7.04;59.57;98854.97;4369340;32;20114;-92
2020/12/31 03:57:43;;;;;;;53.63;23.80;;;;;;;6.99;59.57;98855.13;4356850;32;20185;-93
2020/12/31 04:00:08;;;;;;;51.67;23.58;;;;;;;6.85;59.56;98854.69;4356715;32;20333;-93
2020/12/31 04:02:34;;;;;;;50.05;23.17;;;;;;;6.96;59.57;98857.81;4357122;32;20098;-93
2020/12/31 04:04:59;;;;;;;52.83;24.73;;;;;;;6.89;59.56;98850.31;4368937;32;20142;-92
2020/12/31 04:07:25;;;;;;;50.53;22.90;;;;;;;6.83;59.56;98851.31;4356650;32;21157;-94
2020/12/31 04:09:51;;;;;;;50.55;22.17;;;;;;;6.95;59.57;98848.38;4357256;32;20100;-95
2020/12/31 04:12:17;;;;;;;53.08;22.87;;;;;;;7.00;59.56;98851.66;4370336;32;20157;-94
2020/12/31 04:14:43;;;;;;;50.47;22.87;;;;;;;6.70;59.55;98845.69;4357875;32;20070;-94
2020/12/31 04:17:08;;;;;;;45.50;21.17;;;;;;;6.80;59.55;98842.81;4357189;32;20138;-95
2020/12/31 04:19:33;;;;;;;53.67;23.48;;;;;;;6.94;59.57;98831.16;4370195;32;20106;-94
2020/12/31 04:21:59;;;;;;;51.33;22.35;;;;;;;6.77;59.55;98833.41;4357099;32;20149;-93
2020/12/31 04:24:24;;;;;;;47.58;21.00;;;;;;;6.89;59.56;98835.63;4369612;32;20410;-93
2020/12/31 04:26:53;;;;;;;49.97;23.42;;;;;;;6.74;59.55;98836.94;4369073;32;20165;-93
2020/12/31 04:29:18;;;;;;;48.58;21.90;;;;;;;6.86;59.56;98824.50;4357307;32;20455;-94
2020/12/31 04:31:44;;;;;;;45.38;20.98;;;;;;;6.82;59.56;98825.50;4369219;32;20116;-94
2020/12/31 04:34:09;;;;;;;45.85;20.10;;;;;;;6.93;59.56;98826.87;4368969;32;20140;-92
2020/12/31 04:36:36;;;;;;;49.42;21.27;;;;;;;6.75;59.55;98825.69;4357250;32;20135;-94
2020/12/31 04:39:02;;;;;;;45.65;20.33;;;;;;;6.74;59.56;98828.34;4357346;32;20086;-92
2020/12/31 04:41:28;;;;;;;43.17;20.92;;;;;;;6.72;59.56;98825.81;4357400;32;20133;-93
2020/12/31 04:43:54;;;;;;;48.90;21.52;;;;;;;6.78;59.55;98819.59;4369389;32;20118;-94
2020/12/31 04:46:21;;;;;;;53.83;23.33;;;;;;;6.77;59.55;98825.66;4357221;32;20107;-93
2020/12/31 04:48:49;;;;;;;44.17;20.52;;;;;;;6.88;59.56;98821.00;4358321;32;20050;-92
2020/12/31 04:51:14;;;;;;;42.17;19.37;;;;;;;6.88;59.56;98818.41;4361674;32;20085;-93
2020/12/31 04:53:40;;;;;;;44.38;20.20;;;;;;;7.05;59.57;98817.84;4369897;32;20122;-96
2020/12/31 04:56:06;;;;;;;42.13;19.70;;;;;;;7.07;59.57;98816.91;4355828;32;20157;-94
2020/12/31 04:58:31;;;;;;;43.87;19.65;;;;;;;6.94;59.57;98820.81;4356471;32;20361;-93
2020/12/31 05:00:57;;;;;;;44.10;19.00;;;;;;;6.98;59.57;98824.97;4369246;32;20202;-94
2020/12/31 05:03:22;;;;;;;47.15;20.52;;;;;;;7.04;59.57;98817.00;4367886;32;20128;-92
2020/12/31 05:05:50;;;;;;;46.90;19.65;;;;;;;6.98;59.57;98817.22;4355982;32;20122;-92
2020/12/31 05:08:16;;;;;;;43.47;18.90;;;;;;;6.99;59.57;98816.31;4356614;32;20442;-92
2020/12/31 05:10:41;;;;;;;43.53;18.27;;;;;;;6.95;59.57;98822.50;4356090;32;20132;-93
2020/12/31 05:13:07;;;;;;;40.75;19.58;;;;;;;7.18;59.59;98829.50;4367625;32;21187;-92
2020/12/31 05:15:42;;;;;;;44.28;20.12;;;;;;;6.87;59.56;98824.50;4355915;32;20102;-93
2020/12/31 05:18:19;;;;;;;36.72;17.62;;;;;;;6.98;59.57;98827.56;4355963;32;20130;-92
2020/12/31 05:20:46;;;;;;;36.38;17.55;;;;;;;7.21;59.58;98823.38;4381505;32;20150;-91
2020/12/31 05:23:13;;;;;;;41.17;18.80;;;;;;;7.12;59.58;98826.28;4355120;32;20711;-91
2020/12/31 05:25:38;;;;;;;36.85;17.35;;;;;;;7.22;59.58;98830.25;4354648;32;20110;-92
2020/12/31 05:28:04;;;;;;;44.15;19.00;;;;;;;6.99;59.57;98826.66;4366566;32;26166;-91
2020/12/31 05:30:29;;;;;;;39.95;17.90;;;;;;;7.15;59.57;98827.03;4341913;32;20125;-92
2020/12/31 05:33:03;;;;;;;38.30;17.83;;;;;;;7.06;59.57;98838.50;4367662;32;20903;-90
2020/12/31 05:35:28;;;;;;;41.25;19.30;;;;;;;7.12;59.58;98841.81;4355934;32;20173;-93
2020/12/31 05:37:54;;;;;;;38.38;17.95;;;;;;;7.11;59.58;98840.97;4354676;32;26197;-91
2020/12/31 05:40:19;;;;;;;39.90;18.85;;;;;;;7.17;59.57;98842.50;4354889;32;20119;-92
2020/12/31 05:42:45;;;;;;;39.13;18.73;;;;;;;7.46;59.59;98844.13;4354543;32;29895;-91
2020/12/31 05:45:26;;;;;;;37.50;17.67;;;;;;;7.50;59.60;98840.53;4365916;32;23110;-89
2020/12/31 05:47:52;;;;;;;40.75;18.05;;;;;;;7.43;59.59;98842.47;4355092;32;20121;-90
2020/12/31 05:50:23;;;;;;;44.13;19.08;;;;;;;7.32;59.58;98839.38;4354768;32;20106;-90
2020/12/31 05:52:48;;;;;;;40.78;19.25;;;;;;;7.39;59.58;98841.75;4353979;32;20102;-89
2020/12/31 05:55:15;;;;;;;38.58;18.00;;;;;;;7.50;59.60;98841.38;4365295;32;20140;-90
2020/12/31 05:57:44;;;;;;;37.63;17.48;;;;;;;7.36;59.59;98839.25;4365705;32;20108;-89
2020/12/31 06:00:12;;;;;;;40.33;18.70;;;;;;;7.42;59.59;98833.03;4365575;32;20505;-92
2020/12/31 06:02:43;;;;;;;35.00;17.40;;;;;;;7.39;59.58;98840.91;4365129;32;20255;-91
2020/12/31 06:05:10;;;;;;;36.90;17.40;;;;;;;7.37;59.59;98840.09;4365526;32;20135;-89
2020/12/31 06:07:41;;;;;;;40.97;17.95;;;;;;;7.27;59.58;98839.53;4353467;32;20090;-90
2020/12/31 06:10:06;;;;;;;40.65;18.60;;;;;;;7.22;59.58;98846.62;4354445;32;20114;-93
2020/12/31 06:12:49;;;;;;;42.40;19.27;;;;;;;6.96;59.57;98850.06;4354034;32;20365;-90
2020/12/31 06:15:21;;;;;;;42.95;17.80;;;;;;;7.18;59.58;98846.78;4355788;32;20114;-91
2020/12/31 06:17:47;;;;;;;40.28;18.73;;;;;;;7.13;59.57;98844.34;4370298;32;20089;-94
2020/12/31 06:20:14;;;;;;;41.10;18.30;;;;;;;7.04;59.57;98852.38;4357743;32;20726;-93
2020/12/31 06:23:09;;;;;;;42.25;18.12;;;;;;;7.21;59.58;98850.09;4356991;32;20110;-91
2020/12/31 06:25:35;;;;;;;37.22;17.37;;;;;;;7.26;59.59;98852.53;4361891;32;20174;-92
2020/12/31 06:28:09;;;;;;;46.92;19.00;;;;;;;7.19;59.58;98857.09;4367902;32;20098;-91
2020/12/31 06:30:35;;;;;;;48.22;20.05;;;;;;;7.12;59.58;98853.00;4369218;32;20106;-92
2020/12/31 06:33:11;;;;;;;38.88;17.60;;;;;;;7.15;59.57;98855.50;4355928;32;20115;-91
2020/12/31 06:35:40;;;;;;;42.40;19.02;;;;;;;7.13;59.57;98859.88;4368432;32;20106;-91
2020/12/31 06:38:06;;;;;;;45.15;19.02;;;;;;;7.18;59.59;98859.72;4355621;32;20089;-93
2020/12/31 06:40:32;;;;;;;40.75;18.45;;;;;;;7.36;59.59;98859.97;4355954;32;20490;-92
2020/12/31 06:43:09;;;;;;;39.10;18.48;;;;;;;7.33;59.59;98860.06;4356640;32;20118;-95
2020/12/31 06:45:35;;;;;;;40.75;18.85;;;;;;;7.26;59.58;98863.75;4371102;32;20114;-92
2020/12/31 06:48:01;;;;;;;39.35;17.75;;;;;;;7.48;59.60;98855.25;4355135;32;20090;-89
2020/12/31 06:50:57;;;;;;;39.13;17.35;;;;;;;7.41;59.59;98864.16;4393438;32;20125;-89
2020/12/31 06:53:32;;;;;;;48.95;22.25;;;;;;;7.41;59.59;98865.00;4393095;32;20137;-89
2020/12/31 06:55:59;;;;;;;46.70;24.27;;;;;;;7.51;59.60;98860.34;4379435;32;20102;-91
2020/12/31 06:58:25;;;;;;;50.40;28.75;;;;;;;7.48;59.60;98874.22;4379441;32;20125;-90
2020/12/31 07:00:53;;;;;;;43.10;24.83;;;;;;;7.60;59.60;98866.06;4379322;32;20102;-90
2020/12/31 07:03:57;;;;;;;44.65;19.60;;;;;;;7.74;59.61;98867.31;4379511;32;20134;-89
2020/12/31 07:06:23;;;;;;;44.10;20.00;;;;;;;7.83;59.61;98872.19;4307838;33;20284;-89
2020/12/31 07:09:02;;;;;;;33.90;17.33;;;;;;;7.82;59.61;98875.69;4320910;33;20254;-89
2020/12/31 07:11:45;;;;;;;36.80;18.33;;;;;;;8.11;59.63;98866.88;4334966;32;20698;-89
2020/12/31 07:14:25;;;;;;;39.50;19.25;;;;;;;8.03;59.62;98872.31;4393187;32;20400;-89
2020/12/31 07:17:06;;;;;;;36.42;17.75;;;;;;;8.23;59.64;98866.41;4366894;32;20102;-88
2020/12/31 07:19:45;;;;;;;36.30;18.20;;;;;;;8.08;59.63;98879.97;4367135;32;20094;-86
2020/12/31 07:22:10;;;;;;;36.97;18.55;;;;;;;8.17;59.63;98879.63;4393025;32;20086;-88
2020/12/31 07:24:51;;;;;;;39.05;20.10;;;;;;;8.27;59.64;98883.53;4379165;32;20146;-88
2020/12/31 07:27:20;;;;;;;36.75;19.27;;;;;;;8.36;59.64;98877.22;4355646;32;20111;-89
2020/12/31 07:30:17;;;;;;;46.72;21.45;;;;;;;8.25;59.64;98874.97;4366567;32;20117;-88
2020/12/31 07:33:02;;;;;;;40.42;19.10;;;;;;;8.25;59.64;98878.44;4367456;32;20142;-88
2020/12/31 07:35:33;;;;;;;38.33;19.15;;;;;;;8.18;59.63;98882.16;4354253;32;20141;-88
2020/12/31 07:38:10;;;;;;;39.58;19.42;;;;;;;8.19;59.63;98881.25;4378999;32;20784;-87
2020/12/31 07:40:39;;;;;;;38.75;19.55;;;;;;;7.88;59.62;98891.88;4355396;32;20098;-88
2020/12/31 07:43:05;;;;;;;42.13;19.80;;;;;;;7.80;59.61;98885.22;4367183;32;20109;-90
2020/12/31 07:45:31;;;;;;;38.08;19.02;;;;;;;7.82;59.61;98889.50;4366932;32;20796;-89
2020/12/31 07:47:57;;;;;;;40.50;19.95;;;;;;;7.85;59.62;98886.78;4366963;32;21038;-87
2020/12/31 07:50:22;;;;;;;41.50;19.35;;;;;;;7.82;59.61;98891.25;4354298;32;20078;-88
2020/12/31 07:52:48;;;;;;;40.88;21.12;;;;;;;7.83;59.61;98886.00;4354959;32;20133;-88
2020/12/31 07:55:13;;;;;;;41.70;19.33;;;;;;;7.67;59.60;98898.63;4354074;32;20135;-87
2020/12/31 07:57:39;;;;;;;44.05;20.95;;;;;;;7.68;59.60;98896.87;4351489;32;20530;-88
2020/12/31 08:00:12;;;;;;;42.22;20.02;;;;;;;7.67;59.60;98896.03;4363873;32;20152;-90
2020/12/31 08:02:43;;;;;;;47.10;21.45;;;;;;;7.60;59.60;98894.56;4351747;32;20281;-90
2020/12/31 08:05:10;;;;;;;40.72;19.98;;;;;;;7.46;59.59;98895.91;4376832;32;21100;-89
2020/12/31 08:07:36;;;;;;;44.72;20.85;;;;;;;7.36;59.59;98898.81;4376997;32;20115;-89
2020/12/31 08:10:01;;;;;;;42.45;20.08;;;;;;;7.52;59.59;98906.03;4376775;32;20145;-89
2020/12/31 08:12:26;;;;;;;43.63;19.90;;;;;;;7.56;59.60;98902.44;4376389;32;20129;-90
2020/12/31 08:14:52;;;;;;;43.97;20.90;;;;;;;7.59;59.60;98902.38;4363611;32;23144;-89
2020/12/31 08:17:17;;;;;;;42.22;19.60;;;;;;;7.83;59.61;98895.53;4363705;32;20453;-89
2020/12/31 08:19:42;;;;;;;44.17;19.55;;;;;;;7.92;59.62;98892.59;4363125;32;33735;-89
2020/12/31 08:22:29;;;;;;;41.42;19.45;;;;;;;7.95;59.62;98895.91;4376342;32;20146;-88
2020/12/31 08:25:04;;;;;;;40.67;19.02;;;;;;;7.96;59.62;98892.44;4364899;32;20103;-89
2020/12/31 08:27:30;;;;;;;37.72;18.77;;;;;;;7.94;59.62;98883.88;4352437;32;20114;-89
2020/12/31 08:29:56;;;;;;;42.25;19.25;;;;;;;8.11;59.62;98878.09;4388759;32;30763;-89
2020/12/31 08:32:23;;;;;;;38.47;17.80;;;;;;;8.16;59.63;98883.09;4351861;32;20098;-89
2020/12/31 08:34:52;;;;;;;32.72;17.48;;;;;;;8.15;59.63;98882.25;4364087;32;20107;-89
2020/12/31 08:37:17;;;;;;;35.05;19.02;;;;;;;8.41;59.65;98883.09;4364251;32;20459;-90
2020/12/31 08:39:42;;;;;;;37.08;18.83;;;;;;;8.38;59.65;98881.47;4350589;32;31357;-89
2020/12/31 08:42:08;;;;;;;36.10;18.27;;;;;;;8.47;59.65;98881.09;4351739;32;20182;-89
2020/12/31 08:44:33;;;;;;;40.05;19.87;;;;;;;8.64;59.66;98887.41;4350745;32;35333;-89
2020/12/31 08:46:58;;;;;;;39.20;18.50;;;;;;;8.65;59.66;98883.91;4363511;32;31929;-90
2020/12/31 08:49:25;;;;;;;39.05;20.92;;;;;;;8.68;59.66;98879.47;4375804;32;30407;-90
2020/12/31 08:51:51;;;;;;;36.38;20.92;;;;;;;8.45;59.65;98887.25;4363945;32;20144;-89
2020/12/31 08:54:16;;;;;;;41.33;21.42;;;;;;;8.34;59.64;98887.66;4351635;32;20194;-89
2020/12/31 08:56:42;;;;;;;36.28;20.83;;;;;;;8.59;59.66;98879.81;4363962;32;20115;-90
2020/12/31 08:59:14;;;;;;;42.20;21.45;;;;;;;8.78;59.67;98882.56;4351110;32;23494;-90
2020/12/31 09:01:43;;;;;;;38.50;20.55;;;;;;;8.80;59.66;98888.53;4352183;32;20117;-90
2020/12/31 09:04:09;;;;;;;34.90;17.87;;;;;;;8.86;59.67;98885.69;4364026;32;20794;-89
2020/12/31 09:06:35;;;;;;;45.60;23.83;;;;;;;8.91;59.68;98883.75;4376620;32;20103;-90
2020/12/31 09:09:01;;;;;;;42.08;23.10;;;;;;;8.85;59.67;98877.06;4363912;32;20173;-89
2020/12/31 09:11:27;;;;;;;38.50;20.95;;;;;;;8.64;59.66;98871.84;4351677;32;20099;-89
2020/12/31 09:13:52;;;;;;;38.13;20.52;;;;;;;8.76;59.67;98874.84;4376443;32;20159;-90
2020/12/31 09:16:18;;;;;;;43.10;20.67;;;;;;;8.67;59.66;98869.12;4376364;32;20453;-90
2020/12/31 09:18:43;;;;;;;45.78;23.70;;;;;;;8.62;59.66;98869.31;4375911;32;20141;-90
2020/12/31 09:21:09;;;;;;;35.40;17.95;;;;;;;8.62;59.66;98866.72;4366054;32;20095;-90
2020/12/31 09:23:35;;;;;;;34.78;18.30;;;;;;;8.73;59.66;98863.72;4357580;32;20128;-90
2020/12/31 09:26:00;;;;;;;40.47;19.25;;;;;;;8.63;59.66;98863.22;4363783;32;20439;-90
2020/12/31 09:28:26;;;;;;;34.95;17.55;;;;;;;8.62;59.66;98858.94;4351119;32;20141;-90
2020/12/31 09:30:55;;;;;;;36.67;18.35;;;;;;;8.57;59.65;98864.31;4351187;32;20117;-90
2020/12/31 09:33:21;;;;;;;38.55;18.95;;;;;;;8.50;59.64;98859.41;4351480;32;20136;-90
2020/12/31 09:35:46;;;;;;;38.35;17.83;;;;;;;8.40;59.65;98860.66;4365068;32;20114;-90
2020/12/31 09:38:16;;;;;;;37.00;17.50;;;;;;;8.28;59.63;98867.97;4364039;32;20162;-90
2020/12/31 09:40:42;;;;;;;38.47;17.73;;;;;;;8.41;59.64;98862.34;4363538;32;20102;-90
2020/12/31 09:43:07;;;;;;;41.10;18.52;;;;;;;8.35;59.63;98854.81;4376895;32;20194;-90
2020/12/31 09:45:32;;;;;;;36.10;17.17;;;;;;;8.38;59.65;98854.69;4388662;32;20196;-90
2020/12/31 09:48:01;;;;;;;35.78;17.73;;;;;;;8.56;59.65;98848.81;4375948;32;20420;-89
2020/12/31 09:50:27;;;;;;;37.38;17.73;;;;;;;8.66;59.66;98851.88;4362959;32;20140;-89
2020/12/31 09:52:53;;;;;;;41.58;17.65;;;;;;;8.73;59.65;98856.75;4376020;32;20107;-89
2020/12/31 09:55:18;;;;;;;42.85;18.37;;;;;;;8.64;59.66;98851.09;4363177;32;20102;-89
2020/12/31 09:57:44;;;;;;;38.38;17.98;;;;;;;8.84;59.67;98843.37;4375150;32;23371;-90
2020/12/31 10:00:09;;;;;;;40.60;18.50;;;;;;;8.70;59.66;98843.06;4350705;32;20115;-88
2020/12/31 10:02:35;;;;;;;40.45;16.95;;;;;;;8.72;59.66;98838.66;4350851;32;20457;-90
2020/12/31 10:05:00;;;;;;;36.35;17.60;;;;;;;8.66;59.66;98841.50;4362561;32;27977;-89
2020/12/31 10:07:25;;;;;;;36.45;17.20;;;;;;;8.70;59.66;98843.91;4350230;32;30903;-89
2020/12/31 10:09:51;;;;;;;34.67;16.27;;;;;;;8.54;59.65;98845.44;4350561;32;20413;-90
2020/12/31 10:12:16;;;;;;;32.17;16.77;;;;;;;8.84;59.67;98833.84;4362846;32;29739;-90
2020/12/31 10:14:42;;;;;;;35.33;17.58;;;;;;;8.54;59.65;98833.31;4363214;32;20103;-89
2020/12/31 10:17:07;;;;;;;36.88;18.30;;;;;;;8.55;59.65;98828.97;4363343;32;20116;-91
2020/12/31 10:19:34;;;;;;;45.00;19.15;;;;;;;8.71;59.66;98822.25;4363359;32;20150;-89
2020/12/31 10:21:59;;;;;;;40.22;19.27;;;;;;;8.86;59.67;98826.84;4363004;32;20755;-87
2020/12/31 10:24:24;;;;;;;36.50;18.45;;;;;;;8.87;59.67;98825.09;4375095;32;23518;-88
2020/12/31 10:26:50;;;;;;;36.28;17.30;;;;;;;8.83;59.68;98828.72;4362578;32;20110;-88
2020/12/31 10:29:15;;;;;;;39.40;17.85;;;;;;;8.78;59.67;98828.91;4350812;32;20472;-88
2020/12/31 10:31:42;;;;;;;41.40;18.25;;;;;;;9.00;59.68;98818.53;4350366;32;20103;-89
2020/12/31 10:34:11;;;;;;;43.60;19.02;;;;;;;9.02;59.68;98818.47;4362770;32;20575;-89
2020/12/31 10:36:37;;;;;;;38.90;18.55;;;;;;;8.98;59.68;98820.31;4363216;32;20098;-89
2020/12/31 10:39:02;;;;;;;40.00;18.55;;;;;;;8.99;59.68;98816.84;4376462;32;20386;-90
2020/12/31 10:41:31;;;;;;;39.92;17.80;;;;;;;9.07;59.68;98819.13;4375287;32;20103;-89
2020/12/31 10:43:57;;;;;;;30.95;15.75;;;;;;;9.27;59.70;98813.09;4375226;32;20468;-89
2020/12/31 10:46:24;;;;;;;33.28;16.02;;;;;;;9.18;59.70;98815.16;4375191;32;20078;-89
2020/12/31 10:48:50;;;;;;;38.17;16.50;;;;;;;8.79;59.66;98815.03;4374965;32;20095;-89
2020/12/31 10:51:15;;;;;;;33.63;15.52;;;;;;;8.98;59.68;98817.72;4349202;32;20137;-87
2020/12/31 10:53:41;;;;;;;36.80;17.67;;;;;;;8.91;59.68;98808.50;4362587;32;20125;-89
2020/12/31 10:56:06;;;;;;;34.65;15.82;;;;;;;8.82;59.67;98809.72;4374353;32;26182;-88
2020/12/31 10:58:32;;;;;;;34.95;15.70;;;;;;;8.58;59.65;98810.69;4348870;32;31341;-89
2020/12/31 11:00:57;;;;;;;39.60;17.08;;;;;;;8.80;59.66;98806.34;4349629;32;21670;-88
2020/12/31 11:03:22;;;;;;;32.03;16.30;;;;;;;8.51;59.66;98809.22;4363776;32;27111;-88
2020/12/31 11:05:48;;;;;;;37.25;16.62;;;;;;;8.33;59.64;98810.75;4364016;32;21132;-88
2020/12/31 11:08:13;;;;;;;38.10;17.23;;;;;;;8.49;59.64;98805.84;4377205;32;20182;-88
2020/12/31 11:10:39;;;;;;;39.15;18.58;;;;;;;8.44;59.64;98810.34;4351695;32;24233;-88
2020/12/31 11:13:05;;;;;;;32.13;15.88;;;;;;;8.56;59.65;98790.00;4351823;32;26210;-90
2020/12/31 11:15:30;;;;;;;30.35;14.60;;;;;;;8.52;59.66;98800.56;4355621;32;20869;-95
2020/12/31 11:17:55;;;;;;;27.67;13.43;;;;;;;8.55;59.65;98795.25;4355962;32;20122;-96
2020/12/31 11:20:21;;;;;;;31.17;14.70;;;;;;;8.43;59.64;98798.28;4368549;32;20444;-96
2020/12/31 11:22:48;;;;;;;29.55;14.40;;;;;;;8.63;59.66;98788.00;4369409;32;20109;-95
2020/12/31 11:25:14;;;;;;;27.50;14.02;;;;;;;8.55;59.65;98784.88;4355789;32;20750;-95